Relevés horaires Bierset (Belgique)


Relevés horaires à Bierset - Vendredi 09 Sept. 2016
Heure UTC1 Température [°C] Vent [km/h] Hum. [%] Pres.4 [hPa] Visi. [Km] Nébu. [octa] Préc.5 [mm] Cond.
2m. Res. Ros. Dir.2 Vit. Moy. Raf.3
23:00 15.9 15.9 11.4 NNO 5.6 5.6 13.0 75 1018.1(-0.2/3h) 25 0/8 -- --
22:00 17.2 17.2 11.1 SE 5.6 5.6 11.1 67 1018.1(0.1/3h) 25 0/8 -- --
21:00 18.0 18.0 11.1 SE 3.7 3.7 11.1 64 1018.2(0.7/3h) 25 0/8 -- --
20:00 18.6 18.6 10.7 E 3.7 3.7 7.4 60 1018.1(0.6/3h) 25 0/8 -- --
19:00 18.7 18.7 10.9 N 1.9 3.7 3.7 60 1017.8(0.2/3h) 25 0/8 -- --
18:00 20.6 20.6 10.1 NO 1.9 5.6 11.1 51 1017.3(-0.4/3h) 25 0/8 0/12h
--
17:00 21.8 21.8 9.8 NO 1.9 5.6 7.4 46 1017.3(-0.8/3h) 25 0/8 -- --
16:00 22.6 22.6 9.0 NNO 1.9 3.7 7.4 42 1017.3(-1.1/3h) 25 0/8 -- --
15:00 22.7 22.7 9.1 OSO 3.7 5.6 11.1 42 1017.6(-1.2/3h) 25 0/8 -- --
14:00 22.0 22.0 9.3 OSO 5.6 5.6 11.1 44 1018.1(-0.9/3h) 25 0/8 -- --
13:00 21.6 21.6 9.1 NNO 3.7 5.6 11.1 45 1018.5(-0.9/3h) 25 0/8 -- --
12:00 20.7 20.7 7.2 OSO 5.6 7.4 11.1 42 1018.9(-0.8/3h) 25 0/8 0/6h
--
11:00 19.7 19.7 8.8 OSO 5.6 5.6 9.3 49 1019.2(-0.5/3h) 20 1/8 -- --
10:00 18.2 18.2 10.0 SO 3.7 5.6 9.3 59 1019.7(0.3/3h) 20 2/8 -- --
09:00 16.6 16.6 11.7 SO 3.7 7.4 11.1 73 1020(0.9/3h) 12 4/8 -- --
08:00 14.6 14.6 11.3 SSO 3.7 5.6 7.4 81 1020(1.0/3h) 12 7/8 -- --
07:00 13.6 13.6 11.1 S 3.7 7.4 11.1 85 1019.7(0.9/3h) 10 7/8 -- --
06:00 13.4 13.4 10.9 SSO 5.6 7.4 11.1 85 1019.3(0.7/3h) 15 7/8 0/12h
--
05:00 13.2 13.2 10.7 SO 5.6 5.6 9.3 85 1019.2(0.6/3h) 15 7/8 -- --
04:00 13.5 13.5 10.9 S 5.6 7.4 11.1 84 1018.8(0.2/3h) 15 1/8 -- --
03:00 13.7 13.7 10.6 S 3.7 7.4 11.1 82 1018.6(0.2/3h) 15 1/8 -- --
02:00 13.7 13.5 10.6 SSO 7.4 7.4 11.1 82 1018.6(0.4/3h) 30 1/8 -- --
01:00 13.0 13 10.8 SO 5.6 7.4 9.3 86 1018.6(0.7/3h) 30 1/8 -- --
00:00 13.5 13.2 10.8 SO 7.4 13.0 16.7 84 1018.4(1.2/3h) 30 1/8 0/6h
0/24h
--

1 Coordinated Universal Time. Actuellement il est 05:00 locale et 03:00 UTC.

2 Le vent souffle depuis la direction indiquée vers la direction oposée.

3 Les rafales max. sont disponible 40 min après l'heure du relevé.

4 Pour les stations d'altitude (plus de 600m) le géopotentiel du niveau le plus proche de la pression obligatoire est indiqué.

5 Les stations disposant d'un diffuseur peuvent indiquer "trace". Cela signifie que des précipitations ont touchés le sol mais que la quantité est inférieure à 0.1 mm.

Récapitulatif de la journée
Température [°C] Vent [km/h] Ensoleillement4 [h] Precipitations totale5 [mm] Pression [Hpa]
Min1 Max.2 Moy.3 Max. Min Max.
12.8 22.8 6.2 16.7 0 h 0 min 0 1017.3 1020.0

1 Température minimale relevée entre 18:00 UTC la veille et 18:00 UTC le jour donné.

2 Température maximale relevée entre 06:00 UTC le jour donné et 06:00 UTC le lendemain.

3 Vent moyen de la journée basé sur les relevés horaires.

4 Ensoleillement en heures relevé entre 06:00 UTC la veille et 06:00 UTC le jour donné.

5 Précipitations totales tombées entre 06:00 UTC la jour donné et 06:00 UTC le lendemain.

Graphiques horaires